Time;durP1;ratioP1;P1;durP2;ratioP2;P2;SDS_P1;SDS_P2;PMS_P1;PMS_P2;Temp;Humidity;BMP_temperature;BMP_pressure;BME280_temperature;BME280_humidity;BME280_pressure;Samples;Min_cycle;Max_cycle;Signal;HPM_P1;HPM_P2
2021/04/25 00:01:10;;;;;;;13.10;6.70;;;;;;;2.78;61.52;100924.51;104233;1104;78094;-65
2021/04/25 00:03:15;;;;;;;12.10;6.20;;;;;;;2.76;61.53;100923.80;104212;1104;79218;-65
2021/04/25 00:05:21;;;;;;;12.20;6.80;;;;;;;2.74;61.76;100917.75;104193;1104;77333;-64
2021/04/25 00:07:27;;;;;;;12.80;7.30;;;;;;;2.71;62.38;100918.00;104253;1104;77766;-65
2021/04/25 00:09:32;;;;;;;15.10;7.40;;;;;;;2.71;62.54;100920.66;104291;1099;76919;-64
2021/04/25 00:11:38;;;;;;;13.10;7.00;;;;;;;2.68;62.55;100917.39;104293;1104;78425;-62
2021/04/25 00:13:43;;;;;;;12.60;7.00;;;;;;;2.63;62.65;100909.78;104222;1104;78537;-61
2021/04/25 00:15:49;;;;;;;14.50;7.00;;;;;;;2.61;62.75;100910.89;104229;1104;78070;-62
2021/04/25 00:17:55;;;;;;;13.80;7.10;;;;;;;2.55;62.88;100909.57;104269;1104;77601;-62
2021/04/25 00:20:00;;;;;;;11.80;6.30;;;;;;;2.53;63.25;100900.00;104215;1104;78574;-62
2021/04/25 00:22:08;;;;;;;11.50;7.70;;;;;;;2.50;63.36;100903.73;104212;1098;76918;-66
2021/04/25 00:24:13;;;;;;;16.60;8.30;;;;;;;2.48;63.06;100911.02;104409;1087;77256;-66
2021/04/25 00:26:25;;;;;;;18.20;8.40;;;;;;;2.38;63.37;100905.61;104253;1104;79568;-66
2021/04/25 00:28:30;;;;;;;15.10;8.90;;;;;;;2.35;63.23;100900.52;104296;1098;77569;-61
2021/04/25 00:30:35;;;;;;;18.00;8.30;;;;;;;2.37;63.83;100897.72;104263;1104;78174;-63
2021/04/25 00:32:40;;;;;;;17.50;8.70;;;;;;;2.36;63.40;100896.05;104222;1104;78737;-61
2021/04/25 00:34:49;;;;;;;17.20;9.40;;;;;;;2.27;63.62;100899.45;104268;1104;78426;-66
2021/04/25 00:36:57;;;;;;;18.70;8.80;;;;;;;2.24;63.62;100897.88;104217;1099;78042;-66
2021/04/25 00:39:06;;;;;;;15.40;7.70;;;;;;;2.24;64.37;100897.03;104256;1104;78712;-64
2021/04/25 00:41:11;;;;;;;15.70;8.20;;;;;;;2.19;63.99;100889.41;104235;1104;77268;-65
2021/04/25 00:43:20;;;;;;;14.80;7.90;;;;;;;2.16;64.08;100894.98;104244;1098;79240;-62
2021/04/25 00:45:25;;;;;;;16.30;8.00;;;;;;;2.18;64.16;100897.52;104218;1104;78088;-61
2021/04/25 00:47:30;;;;;;;16.00;8.60;;;;;;;2.20;64.23;100890.23;104210;1104;78665;-62
2021/04/25 00:49:37;;;;;;;14.70;7.70;;;;;;;2.21;64.09;100886.61;104246;1104;77924;-65
2021/04/25 00:51:43;;;;;;;15.40;7.00;;;;;;;2.22;64.03;100888.31;104243;1104;78876;-66
2021/04/25 00:53:49;;;;;;;16.10;8.10;;;;;;;2.19;64.16;100883.23;104241;1100;78261;-65
2021/04/25 00:55:55;;;;;;;12.60;7.70;;;;;;;2.18;64.38;100885.05;104255;1104;77701;-65
2021/04/25 00:58:03;;;;;;;16.90;7.70;;;;;;;2.18;64.47;100884.19;104260;1104;78547;-64
2021/04/25 01:00:13;;;;;;;18.20;9.30;;;;;;;2.17;64.23;100887.84;104294;1099;77373;-66
2021/04/25 01:02:18;;;;;;;16.80;9.60;;;;;;;2.12;64.34;100885.53;104227;1104;78205;-66
2021/04/25 01:04:25;;;;;;;15.90;8.20;;;;;;;2.09;64.30;100885.78;104293;1104;77817;-64
2021/04/25 01:06:31;;;;;;;16.20;8.30;;;;;;;2.06;65.04;100877.20;104299;1104;79691;-64
2021/04/25 01:08:36;;;;;;;14.10;7.70;;;;;;;2.05;65.25;100880.83;104297;1099;78244;-66
2021/04/25 01:10:41;;;;;;;18.20;7.60;;;;;;;2.04;65.02;100874.64;104279;1104;77306;-66
2021/04/25 01:12:47;;;;;;;16.40;8.10;;;;;;;2.06;65.60;100887.86;104300;1104;78259;-65
2021/04/25 01:14:54;;;;;;;16.30;8.50;;;;;;;2.08;65.37;100886.77;104244;1104;78313;-63
2021/04/25 01:17:00;;;;;;;17.50;9.20;;;;;;;2.10;65.86;100879.48;104281;1104;76816;-61
2021/04/25 01:19:05;;;;;;;16.80;8.60;;;;;;;2.08;65.35;100878.77;104265;1104;79608;-62
2021/04/25 01:21:11;;;;;;;16.70;8.50;;;;;;;2.02;65.55;100873.08;104269;1099;78256;-63
2021/04/25 01:23:19;;;;;;;18.10;8.30;;;;;;;1.98;65.69;100879.64;104244;1104;77304;-61
2021/04/25 01:25:26;;;;;;;16.90;8.40;;;;;;;1.98;65.90;100874.31;104226;1104;78293;-62
2021/04/25 01:27:32;;;;;;;15.10;8.80;;;;;;;2.00;65.44;100867.89;104260;1104;78989;-63
2021/04/25 01:29:37;;;;;;;18.70;9.00;;;;;;;2.02;65.91;100867.75;104250;1104;77793;-61
2021/04/25 01:31:42;;;;;;;15.80;8.30;;;;;;;1.98;65.44;100867.14;104210;1104;77422;-63
2021/04/25 01:33:51;;;;;;;15.70;8.10;;;;;;;1.96;65.45;100862.91;104245;1104;79559;-66
2021/04/25 01:35:56;;;;;;;13.40;7.90;;;;;;;2.00;65.66;100864.38;104218;1104;79710;-64
2021/04/25 01:38:02;;;;;;;17.60;9.60;;;;;;;2.03;65.02;100862.31;104266;1098;77974;-65
2021/04/25 01:40:11;;;;;;;15.00;9.20;;;;;;;2.10;65.30;100865.31;104209;1104;79680;-64
2021/04/25 01:42:16;;;;;;;17.80;9.10;;;;;;;2.13;65.19;100857.07;104292;1099;76963;-62
2021/04/25 01:44:22;;;;;;;18.80;10.00;;;;;;;2.12;65.66;100850.04;104270;1104;78171;-61
2021/04/25 01:46:27;;;;;;;19.10;10.20;;;;;;;2.11;65.64;100851.88;104280;1104;77629;-63
2021/04/25 01:48:32;;;;;;;22.70;11.90;;;;;;;2.12;65.14;100855.37;104194;1104;78279;-62
2021/04/25 01:50:38;;;;;;;22.00;11.10;;;;;;;2.09;65.29;100855.61;104286;1099;78835;-63
2021/04/25 01:52:43;;;;;;;19.20;10.10;;;;;;;1.98;65.87;100850.33;104289;1104;77151;-61
2021/04/25 01:54:48;;;;;;;19.90;10.60;;;;;;;1.98;66.41;100853.00;104253;1104;78350;-66
2021/04/25 01:56:53;;;;;;;19.30;10.80;;;;;;;1.90;66.11;100850.92;104275;1104;79253;-65
2021/04/25 01:58:59;;;;;;;18.10;9.40;;;;;;;1.79;66.34;100849.13;104313;1104;79264;-61
2021/04/25 02:01:05;;;;;;;19.70;9.90;;;;;;;1.76;66.37;100849.36;104298;1104;78405;-61
2021/04/25 02:03:16;;;;;;;17.10;9.00;;;;;;;1.71;66.33;100840.05;104301;1099;78496;-62
2021/04/25 02:05:21;;;;;;;15.70;9.20;;;;;;;1.58;66.22;100853.50;104273;1099;78956;-63
2021/04/25 02:07:29;;;;;;;19.20;9.40;;;;;;;1.55;66.02;100850.22;104264;1104;78590;-63
2021/04/25 02:09:34;;;;;;;17.10;9.50;;;;;;;1.50;66.25;100845.27;104254;1104;77596;-62
2021/04/25 02:11:40;;;;;;;17.70;9.00;;;;;;;1.43;66.51;100849.36;104222;1104;78331;-61
2021/04/25 02:13:45;;;;;;;17.00;9.00;;;;;;;1.37;66.67;100852.53;104283;1104;79213;-66
2021/04/25 02:15:50;;;;;;;16.30;8.80;;;;;;;1.36;66.90;100844.65;104291;1099;77171;-65
2021/04/25 02:17:55;;;;;;;17.20;9.10;;;;;;;1.33;66.60;100856.38;104265;1098;77742;-65
2021/04/25 02:20:01;;;;;;;16.90;9.80;;;;;;;1.36;67.14;100849.97;104242;1104;77917;-62
2021/04/25 02:22:09;;;;;;;15.20;8.80;;;;;;;1.38;67.19;100853.35;104277;1104;79306;-62
2021/04/25 02:24:14;;;;;;;16.80;9.50;;;;;;;1.34;66.66;100858.09;104258;1104;77545;-62
2021/04/25 02:26:19;;;;;;;17.60;9.90;;;;;;;1.33;66.99;100844.89;104256;1104;78486;-61
2021/04/25 02:28:25;;;;;;;19.20;10.00;;;;;;;1.33;67.08;100848.40;104258;1105;78815;-64
2021/04/25 02:30:33;;;;;;;19.40;9.50;;;;;;;1.33;67.49;100845.73;104258;1104;78180;-65
2021/04/25 02:32:39;;;;;;;19.00;10.30;;;;;;;1.33;67.34;100844.89;104236;1104;78722;-66
2021/04/25 02:34:48;;;;;;;18.70;8.90;;;;;;;1.33;67.31;100851.06;104254;1104;78484;-63
2021/04/25 02:36:53;;;;;;;16.50;9.30;;;;;;;1.37;67.62;100851.68;104288;1098;78443;-62
2021/04/25 02:38:58;;;;;;;17.50;8.80;;;;;;;1.36;67.71;100847.31;104235;1105;79450;-62
2021/04/25 02:41:03;;;;;;;14.90;8.00;;;;;;;1.34;68.03;100847.45;104272;1104;78333;-62
2021/04/25 02:43:09;;;;;;;17.20;8.90;;;;;;;1.34;68.06;100842.13;104251;1104;77265;-62
2021/04/25 02:45:19;;;;;;;15.40;8.90;;;;;;;1.31;68.17;100844.16;104302;1104;78273;-63
2021/04/25 02:47:26;;;;;;;14.00;8.60;;;;;;;1.26;68.44;100849.00;104256;1104;77057;-63
2021/04/25 02:49:31;;;;;;;16.00;8.70;;;;;;;1.23;68.03;100850.09;104230;1104;78579;-62
2021/04/25 02:51:39;;;;;;;16.20;9.00;;;;;;;1.20;67.86;100845.00;104219;1104;78463;-62
2021/04/25 02:53:44;;;;;;;14.90;8.50;;;;;;;1.11;68.33;100845.70;104240;1104;76995;-63
2021/04/25 02:55:50;;;;;;;16.00;8.70;;;;;;;1.10;68.25;100844.00;104224;1105;77840;-63
2021/04/25 02:57:56;;;;;;;13.60;7.80;;;;;;;1.05;68.16;100839.05;104236;1104;77370;-62
2021/04/25 03:00:07;;;;;;;15.30;8.10;;;;;;;1.00;68.17;100838.55;104200;1104;78144;-61
2021/04/25 03:02:16;;;;;;;14.00;8.40;;;;;;;1.00;68.11;100840.36;104241;1104;78876;-62
2021/04/25 03:04:21;;;;;;;16.50;8.90;;;;;;;0.99;68.48;100836.03;104215;1104;78084;-65
2021/04/25 03:06:25;;;;;;;14.40;8.00;;;;;;;0.94;68.33;100844.34;104248;1104;77547;-66
2021/04/25 03:08:30;;;;;;;14.30;8.70;;;;;;;0.93;68.21;100841.81;104268;1104;78599;-65
2021/04/25 03:10:36;;;;;;;15.60;8.50;;;;;;;0.93;68.35;100844.47;104235;1104;78337;-65
2021/04/25 03:12:45;;;;;;;14.50;8.50;;;;;;;0.91;68.49;100843.71;104199;1104;79556;-65
2021/04/25 03:14:54;;;;;;;14.20;8.00;;;;;;;0.84;68.27;100847.81;104204;1104;78638;-62
2021/04/25 03:16:59;;;;;;;16.40;8.20;;;;;;;0.83;68.58;100846.97;104224;1104;79363;-62
2021/04/25 03:19:04;;;;;;;14.90;8.20;;;;;;;0.82;68.48;100841.78;104221;1104;78396;-62
2021/04/25 03:21:09;;;;;;;14.10;8.00;;;;;;;0.80;68.95;100843.68;104231;1104;77856;-63
2021/04/25 03:23:17;;;;;;;12.90;7.90;;;;;;;0.83;69.37;100846.11;104224;1099;76920;-61
2021/04/25 03:25:25;;;;;;;12.70;7.30;;;;;;;0.83;69.35;100832.81;104241;1104;79850;-66
2021/04/25 03:27:32;;;;;;;13.90;7.90;;;;;;;0.81;68.80;100840.07;104224;1104;78705;-65
2021/04/25 03:29:37;;;;;;;15.20;8.50;;;;;;;0.80;68.80;100835.70;104241;1104;78675;-65
2021/04/25 03:31:43;;;;;;;14.90;8.20;;;;;;;0.77;69.07;100842.10;104240;1104;77793;-66
2021/04/25 03:33:48;;;;;;;14.70;8.10;;;;;;;0.68;69.25;100848.14;104263;1098;77894;-63
2021/04/25 03:35:53;;;;;;;12.80;7.30;;;;;;;0.68;69.50;100849.95;104380;1086;78688;-61
2021/04/25 03:38:04;;;;;;;14.10;8.10;;;;;;;0.69;69.16;100843.67;104185;1104;77770;-62
2021/04/25 03:40:15;;;;;;;15.90;8.50;;;;;;;0.71;69.59;100847.06;104527;1086;77237;-61
2021/04/25 03:42:24;;;;;;;15.20;7.70;;;;;;;0.74;69.59;100846.83;104423;1087;79499;-62
2021/04/25 03:44:31;;;;;;;15.30;7.10;;;;;;;0.78;69.54;100848.27;104260;1104;78550;-62
2021/04/25 03:46:51;;;;;;;14.70;7.30;;;;;;;0.82;69.26;100849.75;104363;1089;76651;-65
2021/04/25 03:51:35;;;;;;;13.90;7.70;;;;;;;0.79;69.40;100847.33;104398;1088;78112;-65
2021/04/25 03:53:41;;;;;;;18.10;8.20;;;;;;;0.85;69.28;100845.03;104466;1088;79687;-66
2021/04/25 03:55:47;;;;;;;14.80;8.20;;;;;;;0.95;69.62;100845.19;104274;1104;78731;-67
2021/04/25 03:58:05;;;;;;;17.30;8.00;;;;;;;0.97;69.54;100849.42;104395;1088;77216;-66
2021/04/25 04:00:19;;;;;;;14.60;8.00;;;;;;;0.99;69.26;100847.48;104406;1089;78320;-63
2021/04/25 04:02:39;;;;;;;16.00;8.10;;;;;;;1.96;69.75;100838.93;104599;1088;76621;-63
2021/04/25 04:04:44;;;;;;;13.80;9.10;;;;;;;3.20;69.02;100840.00;104331;1088;78060;-65
2021/04/25 04:06:52;;;;;;;14.30;8.00;;;;;;;4.26;68.51;100840.42;104238;1098;80511;-67
2021/04/25 04:09:01;;;;;;;15.50;8.00;;;;;;;5.12;66.93;100840.41;104356;1088;77196;-66
2021/04/25 04:11:06;;;;;;;14.70;8.00;;;;;;;4.93;66.33;100835.92;104224;1104;78716;-69
2021/04/25 04:15:24;;;;;;;15.50;9.40;;;;;;;4.63;65.11;100839.61;104325;1088;76964;-65
2021/04/25 04:17:29;;;;;;;15.10;8.80;;;;;;;4.68;65.46;100841.84;104504;1088;78606;-65
2021/04/25 04:19:34;;;;;;;14.20;9.10;;;;;;;5.14;65.12;100839.27;104219;1104;77565;-65
2021/04/25 04:21:40;;;;;;;15.30;8.70;;;;;;;5.64;64.78;100841.66;104173;1104;78841;-64
2021/04/25 04:23:45;;;;;;;16.90;9.20;;;;;;;5.90;63.79;100832.00;104302;1104;76994;-65
2021/04/25 04:25:51;;;;;;;15.40;9.50;;;;;;;6.25;63.38;100837.45;104257;1104;79431;-65
2021/04/25 04:27:56;;;;;;;13.30;8.30;;;;;;;7.29;63.35;100843.91;104225;1105;77826;-65
2021/04/25 04:30:01;;;;;;;14.00;8.30;;;;;;;8.64;62.24;100833.94;104291;1104;78734;-66
2021/04/25 04:32:08;;;;;;;12.80;7.80;;;;;;;10.13;59.69;100834.25;104254;1104;77352;-61
2021/04/25 04:34:16;;;;;;;10.60;6.80;;;;;;;11.41;58.04;100831.61;104245;1104;77931;-61
2021/04/25 04:36:21;;;;;;;12.60;8.00;;;;;;;12.34;55.54;100829.19;104256;1104;79558;-62
2021/04/25 04:38:27;;;;;;;11.90;7.60;;;;;;;13.32;53.62;100835.63;104261;1104;77911;-62
2021/04/25 04:40:32;;;;;;;12.60;8.10;;;;;;;14.15;51.73;100826.56;104223;1103;77821;-63
2021/04/25 04:42:38;;;;;;;10.10;6.60;;;;;;;14.56;49.78;100824.66;104262;1104;78040;-63
2021/04/25 04:44:44;;;;;;;10.70;7.40;;;;;;;15.15;47.84;100823.93;104239;1104;77375;-66
2021/04/25 04:46:49;;;;;;;10.50;6.20;;;;;;;15.56;46.04;100830.02;104272;1104;79445;-64
2021/04/25 04:48:54;;;;;;;9.20;6.40;;;;;;;16.13;43.92;100834.71;104225;1099;77107;-65
2021/04/25 04:50:59;;;;;;;8.30;5.60;;;;;;;16.92;42.55;100829.72;104207;1104;79333;-65
2021/04/25 04:53:04;;;;;;;9.10;6.40;;;;;;;17.07;41.94;100830.27;104247;1099;77660;-62
2021/04/25 04:55:12;;;;;;;8.00;5.50;;;;;;;17.43;40.63;100828.72;104228;1104;79086;-62
2021/04/25 04:57:17;;;;;;;8.80;5.60;;;;;;;17.58;39.15;100832.80;104294;1104;78858;-65
2021/04/25 04:59:22;;;;;;;7.00;5.50;;;;;;;18.14;37.40;100832.64;104220;1104;79045;-65
2021/04/25 05:01:27;;;;;;;7.20;5.20;;;;;;;18.55;36.77;100831.10;104233;1104;77252;-64
2021/04/25 05:03:35;;;;;;;8.10;5.10;;;;;;;18.89;35.33;100821.37;104251;1099;79070;-63
2021/04/25 05:05:43;;;;;;;10.00;6.60;;;;;;;19.02;34.89;100823.91;104244;1104;78133;-64
2021/04/25 05:07:48;;;;;;;8.10;5.30;;;;;;;19.20;34.49;100821.91;104239;1104;77110;-64
2021/04/25 05:09:53;;;;;;;8.30;5.60;;;;;;;19.60;32.85;100821.28;104222;1104;78457;-64
2021/04/25 05:11:58;;;;;;;6.30;4.90;;;;;;;19.98;32.30;100829.84;104234;1104;77822;-62
2021/04/25 05:14:04;;;;;;;6.40;4.80;;;;;;;20.26;31.78;100824.47;104227;1104;76888;-62
2021/04/25 05:16:09;;;;;;;5.80;4.10;;;;;;;20.53;30.59;100822.83;104225;1099;78902;-62
2021/04/25 05:18:14;;;;;;;6.00;3.70;;;;;;;20.89;29.82;100826.26;104237;1104;78926;-61
2021/04/25 05:20:20;;;;;;;5.10;3.60;;;;;;;21.03;29.07;100819.38;104221;1104;78132;-62
2021/04/25 05:22:26;;;;;;;4.70;3.80;;;;;;;21.32;28.82;100817.42;104275;1099;77919;-62
2021/04/25 05:24:31;;;;;;;5.00;4.00;;;;;;;21.58;28.62;100817.60;104240;1100;78707;-62
2021/04/25 05:26:36;;;;;;;7.50;4.30;;;;;;;21.71;27.18;100811.75;104237;1099;78935;-63
2021/04/25 05:28:41;;;;;;;4.90;3.30;;;;;;;21.87;26.79;100818.33;104172;1104;78877;-66
2021/04/25 05:30:46;;;;;;;4.90;3.10;;;;;;;22.26;26.60;100817.22;104242;1104;79028;-66
2021/04/25 05:32:51;;;;;;;3.80;2.70;;;;;;;22.39;26.72;100807.73;104193;1100;77871;-65
2021/04/25 05:34:59;;;;;;;4.20;2.60;;;;;;;22.94;25.33;100812.25;104262;1104;77763;-65
2021/04/25 05:37:08;;;;;;;5.00;3.40;;;;;;;23.11;23.66;100804.67;104228;1104;78577;-65
2021/04/25 05:39:16;;;;;;;4.00;2.90;;;;;;;22.97;23.78;100807.03;104225;1104;77446;-65
2021/04/25 05:41:21;;;;;;;4.70;2.80;;;;;;;23.01;23.45;100810.10;104215;1104;79420;-65
2021/04/25 05:43:26;;;;;;;3.30;2.00;;;;;;;23.15;23.72;100805.83;104247;1098;77049;-61
2021/04/25 05:45:31;;;;;;;3.10;1.80;;;;;;;23.34;23.28;100807.94;104288;1088;78792;-66
2021/04/25 05:47:37;;;;;;;2.00;1.80;;;;;;;23.72;22.71;100806.86;104198;1104;80205;-63
2021/04/25 05:49:42;;;;;;;3.20;1.80;;;;;;;24.04;21.65;100812.28;104242;1104;77933;-65
2021/04/25 05:51:48;;;;;;;2.40;1.60;;;;;;;24.21;21.70;100812.13;104225;1104;77037;-63
2021/04/25 05:53:53;;;;;;;2.60;1.40;;;;;;;24.66;20.15;100809.55;104245;1104;79039;-65
2021/04/25 05:56:00;;;;;;;2.40;1.70;;;;;;;24.58;20.08;100808.13;104260;1104;78428;-62
2021/04/25 05:58:07;;;;;;;1.90;1.50;;;;;;;24.97;20.04;100808.52;104216;1104;77643;-62
2021/04/25 06:00:17;;;;;;;2.10;1.50;;;;;;;24.70;20.14;100815.34;104235;1098;77229;-63
2021/04/25 06:02:23;;;;;;;2.10;1.50;;;;;;;25.35;19.43;100804.42;104195;1104;77923;-63
2021/04/25 06:04:28;;;;;;;2.60;1.30;;;;;;;24.78;18.70;100809.31;104250;1104;77533;-61
2021/04/25 06:06:34;;;;;;;2.80;1.30;;;;;;;24.69;19.35;100809.01;104234;1104;78310;-62
2021/04/25 06:08:39;;;;;;;1.80;1.10;;;;;;;25.09;17.20;100802.73;104232;1104;79635;-61
2021/04/25 06:10:44;;;;;;;2.50;1.40;;;;;;;24.76;18.06;100806.80;104227;1099;76990;-61
2021/04/25 06:12:51;;;;;;;2.20;1.50;;;;;;;24.31;19.29;100806.67;104239;1104;78824;-61
2021/04/25 06:14:56;;;;;;;2.10;1.30;;;;;;;23.58;19.10;100805.66;104225;1104;78307;-61
2021/04/25 06:17:01;;;;;;;2.70;1.50;;;;;;;23.39;18.72;100804.41;104197;1099;77077;-61
2021/04/25 06:19:08;;;;;;;2.00;1.30;;;;;;;22.67;18.59;100806.71;104226;1104;78507;-61
2021/04/25 06:21:14;;;;;;;2.10;1.50;;;;;;;21.45;19.22;100795.92;104265;1099;77285;-65
2021/04/25 06:23:20;;;;;;;2.00;1.40;;;;;;;20.64;19.47;100809.30;104202;1104;78595;-64
2021/04/25 06:25:28;;;;;;;1.90;1.20;;;;;;;19.86;19.29;100804.36;104258;1104;78091;-65
2021/04/25 06:27:33;;;;;;;1.70;1.20;;;;;;;19.48;19.84;100815.79;104237;1104;76895;-61
2021/04/25 06:29:39;;;;;;;2.30;1.30;;;;;;;18.59;20.57;100810.44;104216;1104;77871;-61
2021/04/25 06:31:44;;;;;;;1.70;1.30;;;;;;;18.39;20.93;100805.19;104268;1104;78701;-64
2021/04/25 06:33:50;;;;;;;2.60;1.50;;;;;;;18.28;21.56;100804.07;104173;1104;77819;-66
2021/04/25 06:35:55;;;;;;;2.50;1.60;;;;;;;18.35;21.42;100803.16;104297;1099;79303;-61
2021/04/25 06:38:00;;;;;;;1.90;1.40;;;;;;;18.28;21.64;100800.49;104234;1099;78311;-61
2021/04/25 06:40:09;;;;;;;1.80;1.30;;;;;;;18.16;22.50;100805.05;104232;1104;78508;-62
2021/04/25 06:42:14;;;;;;;1.10;0.60;;;;;;;18.10;20.36;100801.33;104266;1104;79255;-64
2021/04/25 06:44:19;;;;;;;1.30;0.90;;;;;;;18.51;20.19;100806.13;104247;1104;79592;-64
2021/04/25 06:46:24;;;;;;;1.20;0.80;;;;;;;19.26;20.60;100801.80;104227;1104;77721;-65
2021/04/25 06:48:30;;;;;;;1.70;1.10;;;;;;;20.90;19.66;100804.05;104236;1104;78959;-64
2021/04/25 06:50:35;;;;;;;1.20;0.70;;;;;;;21.71;18.70;100789.75;104266;1103;78320;-64
2021/04/25 06:52:41;;;;;;;0.80;0.60;;;;;;;21.22;17.98;100800.77;104266;1104;77855;-64
2021/04/25 06:54:46;;;;;;;0.70;0.50;;;;;;;21.30;18.21;100803.94;104266;1104;76653;-66
2021/04/25 06:56:52;;;;;;;1.20;0.60;;;;;;;22.41;18.67;100800.07;104239;1104;78914;-63
2021/04/25 06:58:57;;;;;;;4.00;1.50;;;;;;;22.78;18.14;100801.06;104208;1104;78029;-64
2021/04/25 07:01:05;;;;;;;1.40;0.80;;;;;;;22.51;17.71;100799.34;104239;1098;78314;-66
2021/04/25 07:03:10;;;;;;;1.60;0.80;;;;;;;21.86;17.89;100804.81;104253;1099;78315;-67
2021/04/25 07:05:16;;;;;;;2.10;1.00;;;;;;;21.96;16.78;100802.22;104267;1099;77154;-67
2021/04/25 07:07:22;;;;;;;2.20;1.00;;;;;;;21.06;18.06;100797.75;104180;1104;79448;-62
2021/04/25 07:09:27;;;;;;;1.00;0.80;;;;;;;20.65;17.67;100798.09;104209;1104;78928;-60
2021/04/25 07:11:32;;;;;;;1.50;1.00;;;;;;;20.66;17.74;100801.67;104234;1098;77811;-69
2021/04/25 07:13:38;;;;;;;1.70;1.10;;;;;;;20.99;17.87;100799.80;104144;1105;78235;-69
2021/04/25 07:15:43;;;;;;;1.50;1.10;;;;;;;21.35;17.47;100801.27;104262;1099;78165;-62
2021/04/25 07:17:48;;;;;;;2.00;1.10;;;;;;;21.51;17.25;100803.17;104261;1104;79372;-62
2021/04/25 07:19:53;;;;;;;1.80;1.00;;;;;;;21.59;17.26;100793.69;104239;1099;77603;-61
2021/04/25 07:21:59;;;;;;;1.80;1.00;;;;;;;22.34;17.79;100799.42;104191;1104;78477;-69
2021/04/25 07:24:06;;;;;;;1.60;1.00;;;;;;;23.07;17.49;100792.53;104204;1104;78259;-68
2021/04/25 07:26:12;;;;;;;1.10;0.80;;;;;;;24.61;16.87;100792.96;104240;1104;78102;-69
2021/04/25 07:28:18;;;;;;;2.50;0.80;;;;;;;24.94;17.00;100798.02;104211;1104;77968;-70
2021/04/25 07:30:26;;;;;;;1.40;1.00;;;;;;;25.00;16.20;100796.92;104228;1104;78741;-69
2021/04/25 07:32:34;;;;;;;2.30;1.60;;;;;;;24.79;15.71;100800.77;104241;1104;78723;-68
2021/04/25 07:34:42;;;;;;;2.40;1.30;;;;;;;24.00;16.19;100794.61;104256;1098;77727;-68
2021/04/25 07:36:47;;;;;;;2.00;1.00;;;;;;;23.52;16.42;100795.67;104290;1104;79666;-62
2021/04/25 07:38:53;;;;;;;2.00;1.10;;;;;;;22.95;16.01;100795.44;104265;1102;77204;-62
2021/04/25 07:41:01;;;;;;;1.70;1.20;;;;;;;23.08;16.63;100794.17;104313;1099;77234;-61
2021/04/25 07:43:07;;;;;;;2.50;1.10;;;;;;;23.44;16.50;100787.89;104234;1104;77157;-62
2021/04/25 07:45:14;;;;;;;1.70;1.00;;;;;;;23.35;15.84;100790.27;104238;1104;77869;-62
2021/04/25 07:47:22;;;;;;;2.00;1.40;;;;;;;23.66;16.02;100798.80;104244;1104;79087;-61
2021/04/25 07:49:30;;;;;;;2.90;1.50;;;;;;;24.73;16.30;100789.92;104239;1104;77732;-61
2021/04/25 07:51:37;;;;;;;2.40;1.50;;;;;;;25.42;16.02;100788.36;104292;1104;76850;-67
2021/04/25 07:53:45;;;;;;;1.40;0.80;;;;;;;26.59;15.46;100789.71;104287;1104;79203;-66
2021/04/25 07:55:55;;;;;;;1.10;0.90;;;;;;;26.69;14.98;100781.36;104382;1088;78881;-61
2021/04/25 07:58:00;;;;;;;1.30;1.10;;;;;;;26.95;14.31;100787.58;104225;1104;78240;-62
2021/04/25 08:00:14;;;;;;;1.70;1.10;;;;;;;26.59;13.69;100775.05;104232;1098;79515;-61
2021/04/25 08:02:26;;;;;;;1.80;1.00;;;;;;;26.19;14.75;100787.14;104277;1098;77967;-62
2021/04/25 08:04:37;;;;;;;2.60;1.30;;;;;;;25.58;14.27;100776.20;104568;1088;77891;-66
2021/04/25 08:06:43;;;;;;;2.00;1.20;;;;;;;24.72;14.43;100786.36;104198;1104;77654;-69
2021/04/25 08:08:51;;;;;;;1.50;1.20;;;;;;;24.32;14.48;100784.29;104244;1104;78253;-68
2021/04/25 08:10:56;;;;;;;2.10;1.40;;;;;;;24.22;14.87;100783.42;104199;1104;78807;-63
2021/04/25 08:13:05;;;;;;;2.20;1.30;;;;;;;24.56;14.72;100784.63;104236;1104;78705;-60
2021/04/25 08:15:13;;;;;;;2.00;1.20;;;;;;;23.87;14.60;100786.82;104267;1104;77627;-67
2021/04/25 08:17:24;;;;;;;2.00;1.10;;;;;;;23.53;14.83;100782.72;104266;1099;78779;-62
2021/04/25 08:19:29;;;;;;;2.40;1.60;;;;;;;23.98;15.49;100783.82;104229;1104;79247;-68
2021/04/25 08:21:44;;;;;;;1.70;1.40;;;;;;;23.67;14.79;100781.17;104243;1105;79105;-65
2021/04/25 08:23:52;;;;;;;2.00;1.30;;;;;;;24.62;15.46;100783.55;104256;1104;79360;-65
2021/04/25 08:25:57;;;;;;;2.20;1.30;;;;;;;25.15;15.50;100774.83;104192;1104;77623;-61
2021/04/25 08:28:04;;;;;;;2.40;1.50;;;;;;;25.85;14.80;100769.52;104269;1104;77639;-61
2021/04/25 08:30:39;;;;;;;1.90;1.70;;;;;;;24.87;15.16;100767.05;104587;1086;79738;-64
2021/04/25 08:33:08;;;;;;;2.20;1.60;;;;;;;22.78;15.30;100778.19;104710;1086;77217;-67
2021/04/25 08:35:15;;;;;;;2.00;1.40;;;;;;;20.99;15.86;100771.49;104445;1088;77486;-62
2021/04/25 08:37:20;;;;;;;1.80;1.10;;;;;;;20.39;16.76;100780.28;104253;1099;77517;-62
2021/04/25 08:39:27;;;;;;;1.90;1.10;;;;;;;20.92;15.94;100768.09;104559;1087;79490;-62
2021/04/25 08:41:38;;;;;;;1.70;1.00;;;;;;;19.62;16.12;100767.89;104398;1088;78006;-69
2021/04/25 08:43:45;;;;;;;1.70;1.10;;;;;;;18.23;16.86;100773.00;104240;1104;77592;-65
2021/04/25 08:45:52;;;;;;;2.70;1.40;;;;;;;17.48;17.44;100774.24;104233;1099;78725;-63
2021/04/25 08:47:59;;;;;;;2.10;1.00;;;;;;;16.89;18.18;100774.77;104235;1104;78947;-64
2021/04/25 08:50:07;;;;;;;1.60;1.10;;;;;;;16.58;18.64;100772.88;104258;1098;78178;-65
2021/04/25 08:52:20;;;;;;;1.70;1.20;;;;;;;16.16;19.22;100773.47;104279;1104;77693;-67
2021/04/25 08:54:27;;;;;;;2.10;1.10;;;;;;;15.48;18.91;100775.78;104231;1104;77182;-62
2021/04/25 08:56:32;;;;;;;1.90;1.10;;;;;;;15.33;20.09;100775.97;104251;1104;78930;-63
2021/04/25 08:58:38;;;;;;;1.80;0.90;;;;;;;15.67;20.07;100780.36;104192;1104;78859;-62
2021/04/25 09:00:44;;;;;;;2.60;1.10;;;;;;;15.68;20.34;100773.03;104275;1104;78148;-61
2021/04/25 09:02:51;;;;;;;2.20;1.00;;;;;;;15.53;20.77;100772.41;104291;1104;79320;-63
2021/04/25 09:04:59;;;;;;;1.40;1.00;;;;;;;15.40;20.85;100769.69;104249;1104;79296;-62
2021/04/25 09:07:14;;;;;;;2.00;1.10;;;;;;;15.24;21.39;100766.34;104276;1104;77703;-66
2021/04/25 09:09:28;;;;;;;2.20;1.20;;;;;;;14.67;21.15;100766.11;104257;1104;79526;-65
2021/04/25 09:11:42;;;;;;;2.00;1.10;;;;;;;14.08;20.82;100763.22;104272;1100;76828;-65
2021/04/25 09:14:20;;;;;;;2.30;1.10;;;;;;;13.75;21.47;100764.94;104381;1087;78495;-61
2021/04/25 09:16:29;;;;;;;1.30;0.80;;;;;;;13.51;22.25;100767.09;104297;1104;79960;-61
2021/04/25 09:18:41;;;;;;;1.30;0.80;;;;;;;13.19;21.92;100770.42;104281;1104;78296;-61
2021/04/25 09:20:53;;;;;;;1.90;0.90;;;;;;;12.88;22.53;100768.04;104262;1104;78759;-60
2021/04/25 09:23:01;;;;;;;2.80;1.00;;;;;;;12.73;23.12;100769.16;104259;1104;77758;-61
2021/04/25 09:25:15;;;;;;;1.50;0.90;;;;;;;12.77;23.18;100765.04;104260;1104;79463;-64
2021/04/25 09:27:28;;;;;;;1.80;0.90;;;;;;;13.26;24.41;100760.47;104531;1087;77952;-63
2021/04/25 09:32:18;;;;;;;1.40;0.60;;;;;;;13.83;23.18;100746.61;104201;1099;76885;-67
2021/04/25 09:34:47;;;;;;;1.60;0.60;;;;;;;13.97;22.78;100744.78;104320;1099;78595;-64
2021/04/25 09:37:14;;;;;;;2.50;0.80;;;;;;;14.07;22.22;100747.94;104290;1104;78580;-63
2021/04/25 09:39:20;;;;;;;1.70;0.50;;;;;;;13.90;22.36;100741.22;104301;1099;78993;-61
2021/04/25 09:41:30;;;;;;;1.80;0.70;;;;;;;14.14;22.46;100738.80;104247;1104;77754;-62
2021/04/25 09:43:45;;;;;;;2.60;0.90;;;;;;;14.19;22.25;100740.89;104239;1104;78871;-67
2021/04/25 09:45:54;;;;;;;1.30;0.60;;;;;;;13.89;22.07;100751.23;104258;1104;77700;-62
2021/04/25 09:48:02;;;;;;;0.80;0.50;;;;;;;13.88;22.44;100743.27;104289;1098;77209;-64
2021/04/25 09:50:20;;;;;;;1.00;0.60;;;;;;;14.17;22.92;100742.98;104218;1104;77099;-61
2021/04/25 09:52:38;;;;;;;1.60;0.80;;;;;;;14.48;22.97;100748.73;104274;1104;79492;-64